Time;durP1;ratioP1;P1;durP2;ratioP2;P2;SDS_P1;SDS_P2;PMS_P1;PMS_P2;Temp;Humidity;BMP_temperature;BMP_pressure;BME280_temperature;BME280_humidity;BME280_pressure;Samples;Min_cycle;Max_cycle;Signal;HPM_P1;HPM_P2
2022/04/07 00:03:01;;;;;;;17.73;7.60;;;;;;;13.88;45.12;98989.97;5400284;32;34573;-66
2022/04/07 00:06:09;;;;;;;15.03;7.43;;;;;;;13.86;45.23;98992.75;5403346;32;36319;-65
2022/04/07 00:09:11;;;;;;;16.10;7.43;;;;;;;13.84;45.28;98978.78;5419193;32;34796;-78
2022/04/07 00:12:13;;;;;;;15.13;7.83;;;;;;;13.66;45.36;98978.38;5397319;32;34305;-78
2022/04/07 00:15:15;;;;;;;17.17;8.13;;;;;;;14.26;43.75;98960.66;5419026;32;34738;-78
2022/04/07 00:18:17;;;;;;;17.67;8.40;;;;;;;13.54;45.83;98977.47;5388023;32;34879;-66
2022/04/07 00:21:25;;;;;;;22.43;9.30;;;;;;;14.14;44.49;98965.06;5421681;32;34709;-77
2022/04/07 00:24:27;;;;;;;22.00;10.17;;;;;;;14.23;44.25;98958.22;5406646;32;44348;-72
2022/04/07 00:27:29;;;;;;;19.63;10.20;;;;;;;14.25;44.29;98956.34;5399652;32;33967;-73
2022/04/07 00:30:31;;;;;;;22.83;10.13;;;;;;;13.36;46.89;98959.50;5420574;32;34430;-66
2022/04/07 00:33:34;;;;;;;22.57;9.83;;;;;;;13.81;45.78;98942.91;5406751;32;34229;-73
2022/04/07 00:36:36;;;;;;;18.27;9.70;;;;;;;12.97;48.70;98954.34;5414139;32;35356;-73
2022/04/07 00:39:38;;;;;;;17.23;9.00;;;;;;;13.98;46.17;98938.16;5382754;32;35756;-66
2022/04/07 00:42:48;;;;;;;22.73;10.10;;;;;;;14.44;45.16;98942.53;5419742;32;34068;-65
2022/04/07 00:45:50;;;;;;;20.67;9.60;;;;;;;13.70;47.04;98942.00;5401531;32;34138;-65
2022/04/07 00:48:52;;;;;;;19.07;9.53;;;;;;;13.76;47.27;98938.91;5407098;32;45016;-65
2022/04/07 00:51:54;;;;;;;23.27;9.67;;;;;;;13.46;48.46;98945.53;5411999;32;35491;-65
2022/04/07 00:54:56;;;;;;;19.13;10.43;;;;;;;14.14;46.42;98925.44;5402969;32;35243;-65
2022/04/07 00:57:59;;;;;;;18.63;9.80;;;;;;;13.01;49.47;98944.41;5381976;32;34787;-66
2022/04/07 01:01:01;;;;;;;22.27;9.93;;;;;;;13.42;48.58;98927.41;5402639;32;35718;-65
2022/04/07 01:04:04;;;;;;;20.93;10.70;;;;;;;13.18;49.01;98928.19;5408426;32;34317;-74
2022/04/07 01:07:07;;;;;;;20.07;9.27;;;;;;;12.71;50.09;98921.06;5402297;32;34189;-67
2022/04/07 01:10:09;;;;;;;17.02;9.88;;;;;;;13.59;47.94;98913.78;5397176;32;34576;-72
2022/04/07 01:13:12;;;;;;;18.60;11.07;;;;;;;12.64;49.23;98919.84;5402315;32;34750;-77
2022/04/07 01:16:14;;;;;;;21.52;11.63;;;;;;;12.86;49.27;98917.34;5400195;32;35602;-65
2022/04/07 01:19:16;;;;;;;15.67;9.80;;;;;;;14.17;45.65;98908.50;5424377;32;36554;-78
2022/04/07 01:22:20;;;;;;;18.23;10.13;;;;;;;13.06;47.78;98915.91;5396818;32;34824;-67
2022/04/07 01:25:24;;;;;;;22.95;11.40;;;;;;;13.01;48.49;98921.53;5414936;32;44636;-67
2022/04/07 01:28:26;;;;;;;18.73;10.83;;;;;;;12.34;50.66;98921.03;5415500;32;34504;-64
2022/04/07 01:31:28;;;;;;;18.80;10.33;;;;;;;12.55;50.17;98912.56;5394422;32;34427;-64
2022/04/07 01:34:31;;;;;;;18.37;10.10;;;;;;;12.47;50.58;98907.84;5422526;32;33919;-64
2022/04/07 01:37:33;;;;;;;20.60;10.27;;;;;;;12.46;50.35;98904.34;5401973;32;34157;-65
2022/04/07 01:40:36;;;;;;;18.70;10.67;;;;;;;12.77;49.47;98889.00;5418985;32;34904;-77
2022/04/07 01:43:39;;;;;;;17.97;9.87;;;;;;;12.86;49.48;98890.13;5382916;32;37168;-73
2022/04/07 01:46:41;;;;;;;19.17;9.98;;;;;;;13.00;48.28;98874.97;5385911;32;35537;-65
2022/04/07 01:49:45;;;;;;;17.07;10.67;;;;;;;12.56;50.41;98879.97;5396274;32;36559;-79
2022/04/07 01:52:48;;;;;;;16.27;9.87;;;;;;;13.16;48.98;98887.06;5403104;32;35502;-66
2022/04/07 01:55:51;;;;;;;20.80;11.27;;;;;;;12.50;50.37;98885.72;5393360;32;34094;-77
2022/04/07 01:58:54;;;;;;;18.23;10.32;;;;;;;12.28;51.64;98895.09;5400513;32;47637;-65
2022/04/07 02:01:56;;;;;;;20.73;11.17;;;;;;;12.29;51.23;98896.78;5402869;32;35230;-78
2022/04/07 02:05:08;;;;;;;22.77;12.00;;;;;;;12.20;51.51;98889.53;5396928;32;34548;-73
2022/04/07 02:08:10;;;;;;;19.23;10.43;;;;;;;12.51;50.66;98868.94;5388122;32;35386;-74
2022/04/07 02:11:12;;;;;;;19.17;10.70;;;;;;;12.56;50.28;98872.06;5413809;32;34906;-65
2022/04/07 02:14:15;;;;;;;17.67;10.10;;;;;;;13.89;46.58;98862.25;5407864;32;34287;-78
2022/04/07 02:17:20;;;;;;;16.93;10.10;;;;;;;12.78;49.42;98869.59;5409980;32;35989;-66
2022/04/07 02:20:23;;;;;;;18.10;9.90;;;;;;;11.71;52.32;98861.25;5376073;32;47042;-78
2022/04/07 02:23:26;;;;;;;17.67;10.33;;;;;;;11.65;52.96;98865.13;5408501;32;34676;-78
2022/04/07 02:26:30;;;;;;;18.13;10.37;;;;;;;12.40;51.10;98860.00;5408697;32;34643;-66
2022/04/07 02:29:32;;;;;;;19.53;10.60;;;;;;;11.95;52.09;98858.78;5407325;32;34393;-66
2022/04/07 02:32:34;;;;;;;17.40;9.40;;;;;;;12.46;50.88;98842.91;5405721;32;34753;-78
2022/04/07 02:35:37;;;;;;;21.03;11.87;;;;;;;12.16;51.50;98836.22;5396040;32;35274;-66
2022/04/07 02:38:39;;;;;;;21.30;10.20;;;;;;;11.96;52.16;98828.03;5412558;32;33087;-73
2022/04/07 02:41:41;;;;;;;16.87;10.17;;;;;;;12.68;50.04;98819.31;5390943;32;35086;-65
2022/04/07 02:44:44;;;;;;;15.68;9.82;;;;;;;11.73;52.89;98813.81;5408962;32;34998;-74
2022/04/07 02:47:46;;;;;;;20.40;9.87;;;;;;;12.47;50.72;98807.69;5405764;32;35369;-66
2022/04/07 02:50:48;;;;;;;15.57;9.87;;;;;;;11.98;51.69;98807.69;5379388;32;34429;-79
2022/04/07 02:53:57;;;;;;;16.63;10.17;;;;;;;12.48;50.31;98802.31;5411368;32;35078;-65
2022/04/07 02:56:59;;;;;;;19.87;10.13;;;;;;;12.11;51.17;98800.62;5386902;32;44247;-65
2022/04/07 03:00:04;;;;;;;17.00;10.30;;;;;;;13.34;47.92;98787.28;5401769;32;35451;-77
2022/04/07 03:03:06;;;;;;;15.33;9.27;;;;;;;12.01;51.14;98791.69;5405736;32;35314;-78
2022/04/07 03:06:08;;;;;;;16.60;8.80;;;;;;;12.15;50.67;98788.91;5405369;32;34794;-78
2022/04/07 03:09:10;;;;;;;18.00;9.40;;;;;;;12.45;49.43;98789.37;5403242;32;35095;-79
2022/04/07 03:12:15;;;;;;;14.87;8.23;;;;;;;12.27;50.09;98784.56;5392156;32;34880;-77
2022/04/07 03:15:17;;;;;;;15.77;8.20;;;;;;;11.86;50.78;98780.44;5407131;32;34364;-65
2022/04/07 03:18:20;;;;;;;18.53;8.93;;;;;;;11.87;51.03;98782.13;5403159;32;34764;-77
2022/04/07 03:21:22;;;;;;;14.83;8.77;;;;;;;12.15;50.34;98781.84;5408670;32;46554;-65
2022/04/07 03:24:24;;;;;;;19.20;8.50;;;;;;;12.34;50.04;98776.13;5405947;32;35203;-66
2022/04/07 03:27:39;;;;;;;15.97;7.80;;;;;;;13.12;47.91;98761.63;5393829;32;35299;-72
2022/04/07 03:30:41;;;;;;;14.63;8.40;;;;;;;11.89;51.79;98764.41;5412587;32;34891;-77
2022/04/07 03:33:44;;;;;;;14.83;8.60;;;;;;;11.52;53.48;98760.84;5409143;32;34872;-78
2022/04/07 03:36:46;;;;;;;12.60;7.40;;;;;;;10.80;56.17;98756.00;5420984;32;36463;-65
2022/04/07 03:39:49;;;;;;;15.27;8.13;;;;;;;11.77;53.04;98746.81;5379948;32;35412;-77
2022/04/07 03:42:52;;;;;;;16.67;7.87;;;;;;;10.23;57.05;98753.56;5424050;32;44507;-78
2022/04/07 03:45:54;;;;;;;16.73;7.83;;;;;;;10.41;56.34;98756.81;5382503;32;34825;-65
2022/04/07 03:48:57;;;;;;;18.17;8.20;;;;;;;10.74;55.06;98742.44;5398431;32;34074;-73
2022/04/07 03:51:59;;;;;;;15.90;7.70;;;;;;;11.08;53.87;98739.25;5423096;32;34731;-77
2022/04/07 03:55:01;;;;;;;17.47;7.17;;;;;;;10.77;54.48;98731.72;5393443;32;34545;-79
2022/04/07 03:58:03;;;;;;;34.33;10.00;;;;;;;11.37;52.47;98732.00;5388544;32;34689;-78
2022/04/07 04:01:05;;;;;;;18.23;9.07;;;;;;;10.75;54.31;98737.06;5397535;32;34766;-78
2022/04/07 04:04:07;;;;;;;32.93;8.67;;;;;;;11.15;53.35;98742.31;5415981;32;34478;-77
2022/04/07 04:07:09;;;;;;;15.63;7.73;;;;;;;10.99;53.66;98737.22;5388601;32;141403;-78
2022/04/07 04:10:12;;;;;;;14.97;7.43;;;;;;;11.03;53.53;98722.94;5394489;32;35210;-77
2022/04/07 04:13:14;;;;;;;17.23;7.20;;;;;;;11.26;53.01;98721.37;5419548;32;34039;-78
2022/04/07 04:16:17;;;;;;;17.17;6.87;;;;;;;11.91;51.31;98725.66;5388059;32;34866;-65
2022/04/07 04:19:20;;;;;;;14.13;6.75;;;;;;;12.66;49.00;98717.59;5404784;32;34023;-77
2022/04/07 04:22:22;;;;;;;14.43;7.17;;;;;;;11.95;50.65;98723.66;5406399;32;44479;-65
2022/04/07 04:25:24;;;;;;;13.53;7.03;;;;;;;11.97;51.06;98732.28;5416503;32;34819;-78
2022/04/07 04:28:26;;;;;;;15.07;6.73;;;;;;;12.26;49.68;98728.41;5414355;32;34167;-78
2022/04/07 04:31:28;;;;;;;15.87;6.77;;;;;;;12.17;50.04;98721.16;5392976;32;34784;-65
2022/04/07 04:34:30;;;;;;;18.47;7.33;;;;;;;12.92;48.02;98723.56;5420672;32;34101;-78
2022/04/07 04:37:32;;;;;;;13.23;6.93;;;;;;;12.03;50.33;98731.84;5387394;32;34867;-67
2022/04/07 04:40:34;;;;;;;12.40;7.17;;;;;;;12.10;49.98;98733.94;5386200;32;35318;-79
2022/04/07 04:43:37;;;;;;;16.03;7.53;;;;;;;12.08;49.84;98720.03;5394275;32;36227;-67
2022/04/07 04:46:39;;;;;;;14.30;7.27;;;;;;;12.23;49.63;98718.09;5407594;32;35375;-78
2022/04/07 04:49:42;;;;;;;14.43;8.63;;;;;;;12.52;48.97;98720.41;5410671;32;35485;-67
2022/04/07 04:52:44;;;;;;;15.00;7.43;;;;;;;12.15;49.83;98723.06;5383073;32;34893;-78
2022/04/07 04:55:46;;;;;;;13.20;7.30;;;;;;;13.19;47.18;98708.28;5398509;32;34750;-78
2022/04/07 04:58:48;;;;;;;15.90;7.50;;;;;;;12.69;48.36;98717.38;5383607;32;34614;-67
2022/04/07 05:01:50;;;;;;;21.67;8.20;;;;;;;12.27;49.79;98711.66;5414421;32;34571;-67
2022/04/07 05:04:53;;;;;;;15.40;7.40;;;;;;;12.34;49.91;98714.69;5405814;32;44418;-66
2022/04/07 05:07:55;;;;;;;11.57;6.30;;;;;;;12.47;49.08;98713.69;5393865;32;34906;-78
2022/04/07 05:10:57;;;;;;;17.53;7.67;;;;;;;13.19;46.97;98715.34;5398482;32;35294;-78
2022/04/07 05:13:59;;;;;;;13.67;7.37;;;;;;;12.98;47.56;98721.31;5401826;32;34558;-79
2022/04/07 05:17:02;;;;;;;14.97;7.17;;;;;;;13.17;46.95;98712.00;5416879;32;34730;-74
2022/04/07 05:20:04;;;;;;;14.07;6.57;;;;;;;12.83;47.89;98711.91;5407776;32;35509;-80
2022/04/07 05:23:06;;;;;;;15.07;7.50;;;;;;;12.65;48.33;98710.66;5420306;32;34913;-66
2022/04/07 05:26:09;;;;;;;13.23;7.47;;;;;;;12.33;48.89;98713.00;5409952;32;35223;-78
2022/04/07 05:29:11;;;;;;;13.03;6.43;;;;;;;12.62;48.39;98716.12;5419541;32;35598;-79
2022/04/07 05:32:13;;;;;;;14.50;6.60;;;;;;;12.82;47.67;98718.16;5416711;32;34910;-77
2022/04/07 05:35:16;;;;;;;13.47;7.13;;;;;;;12.49;48.95;98721.47;5411108;32;35287;-69
2022/04/07 05:38:18;;;;;;;12.77;6.80;;;;;;;12.57;48.61;98732.31;5416652;32;35211;-70
2022/04/07 05:41:20;;;;;;;14.37;6.70;;;;;;;12.86;47.86;98734.56;5389465;32;33978;-65
2022/04/07 05:44:22;;;;;;;13.10;7.07;;;;;;;13.48;46.69;98732.47;5424282;32;44611;-72
2022/04/07 05:47:25;;;;;;;11.90;6.13;;;;;;;13.27;47.42;98744.69;5410516;32;37403;-69
2022/04/07 05:50:27;;;;;;;13.07;7.60;;;;;;;13.78;45.64;98737.19;5410482;32;34086;-90
2022/04/07 05:53:29;;;;;;;14.60;6.37;;;;;;;13.46;46.73;98744.97;5425621;32;35479;-68
2022/04/07 05:56:31;;;;;;;16.10;7.07;;;;;;;13.42;46.86;98740.88;5403315;32;34444;-90
2022/04/07 05:59:33;;;;;;;12.47;6.63;;;;;;;13.81;46.00;98738.72;5412797;32;34723;-64
2022/04/07 06:02:36;;;;;;;19.40;7.03;;;;;;;12.68;48.44;98739.41;5412581;32;34222;-74
2022/04/07 06:05:38;;;;;;;14.10;7.20;;;;;;;13.60;46.35;98735.13;5405797;32;34903;-67
2022/04/07 06:08:40;;;;;;;18.30;7.00;;;;;;;13.67;46.02;98746.91;5398193;32;35686;-76
2022/04/07 06:11:43;;;;;;;14.33;6.73;;;;;;;14.62;43.95;98741.03;5410753;32;34693;-75
2022/04/07 06:14:45;;;;;;;12.65;6.68;;;;;;;14.49;44.20;98745.66;5420464;32;34258;-73
2022/04/07 06:17:49;;;;;;;18.13;6.30;;;;;;;14.16;44.51;98749.13;5411855;32;35613;-74
2022/04/07 06:20:52;;;;;;;16.40;6.87;;;;;;;14.56;43.66;98756.56;5421837;32;47283;-73
2022/04/07 06:23:54;;;;;;;15.63;7.07;;;;;;;13.54;45.80;98752.28;5412715;32;35088;-77
2022/04/07 06:26:56;;;;;;;19.70;10.40;;;;;;;15.08;42.49;98750.47;5425648;32;36856;-77
2022/04/07 06:29:58;;;;;;;14.23;6.70;;;;;;;15.70;40.88;98754.06;5405365;32;34206;-81
2022/04/07 06:33:01;;;;;;;17.13;6.70;;;;;;;15.70;40.92;98760.19;5417697;32;34243;-71
2022/04/07 06:36:03;;;;;;;18.77;6.68;;;;;;;14.35;43.71;98772.28;5414698;32;35458;-84
2022/04/07 06:39:06;;;;;;;18.83;8.27;;;;;;;14.25;44.37;98774.84;5402092;32;35830;-77
2022/04/07 06:42:08;;;;;;;12.87;6.80;;;;;;;14.76;42.91;98768.16;5411130;32;34182;-67
2022/04/07 06:45:11;;;;;;;15.37;6.97;;;;;;;13.79;45.18;98777.62;5412311;32;33081;-71
2022/04/07 06:48:13;;;;;;;13.40;7.45;;;;;;;13.89;45.18;98778.56;5413722;32;32767;-69
2022/04/07 06:51:16;;;;;;;13.13;6.90;;;;;;;14.77;43.70;98777.75;5414740;32;35740;-69
2022/04/07 06:54:18;;;;;;;18.77;7.18;;;;;;;15.52;41.27;98782.06;5415226;32;34250;-69
2022/04/07 06:57:21;;;;;;;15.23;6.97;;;;;;;15.21;42.23;98784.69;5383106;32;34184;-80
2022/04/07 07:00:25;;;;;;;12.02;6.43;;;;;;;15.57;41.16;98782.53;5413360;32;44539;-81
2022/04/07 07:03:28;;;;;;;13.13;6.77;;;;;;;14.87;42.74;98784.78;5413705;32;35435;-69
2022/04/07 07:06:30;;;;;;;12.43;7.15;;;;;;;14.74;42.94;98797.34;5408490;32;35271;-77
2022/04/07 07:09:33;;;;;;;14.97;7.00;;;;;;;14.72;43.09;98799.28;5411186;32;36110;-76
2022/04/07 07:12:35;;;;;;;15.33;7.83;;;;;;;15.15;42.43;98793.97;5396390;32;34108;-78
2022/04/07 07:15:37;;;;;;;15.53;7.87;;;;;;;15.21;42.00;98795.25;5409707;32;34948;-78
2022/04/07 07:18:42;;;;;;;13.63;7.30;;;;;;;15.41;41.77;98789.13;5393596;32;34041;-78
2022/04/07 07:21:45;;;;;;;15.40;6.80;;;;;;;16.01;40.10;98794.63;5398564;32;34849;-69
2022/04/07 07:24:48;;;;;;;;;;;;;;;15.77;40.19;98797.59;5408178;32;34143;-69
2022/04/07 07:27:51;;;;;;;16.30;6.67;;;;;;;15.72;40.71;98796.31;5401829;32;35410;-72
2022/04/07 07:30:53;;;;;;;11.90;6.68;;;;;;;15.38;41.43;98791.19;5412606;32;45910;-87
2022/04/07 07:33:55;;;;;;;14.65;6.28;;;;;;;16.09;39.71;98792.16;5409360;32;35200;-71
2022/04/07 07:36:57;;;;;;;15.63;6.53;;;;;;;16.17;39.56;98795.00;5409507;32;34141;-75
2022/04/07 07:40:07;;;;;;;11.30;6.30;;;;;;;15.91;39.73;98799.91;5403257;32;33522;-73
2022/04/07 07:43:10;;;;;;;16.97;7.43;;;;;;;15.72;40.42;98796.31;5385593;32;34299;-80
2022/04/07 07:46:12;;;;;;;11.30;6.45;;;;;;;15.27;41.21;98801.84;5424834;32;34090;-79
2022/04/07 07:49:14;;;;;;;16.83;7.18;;;;;;;15.63;41.03;98805.88;5413409;32;34757;-80
2022/04/07 07:52:16;;;;;;;24.85;7.82;;;;;;;15.68;40.89;98811.63;5393842;32;37134;-69
2022/04/07 07:55:19;;;;;;;23.33;8.70;;;;;;;15.46;41.73;98807.28;5410621;32;34146;-65
2022/04/07 07:58:24;;;;;;;19.42;9.57;;;;;;;15.08;42.86;98806.03;5397108;32;47093;-78
2022/04/07 08:01:26;;;;;;;17.03;8.17;;;;;;;15.09;43.00;98810.34;5421575;32;34278;-77
2022/04/07 08:04:29;;;;;;;20.37;8.10;;;;;;;15.46;41.97;98804.63;5406198;32;34696;-72
2022/04/07 08:07:31;;;;;;;18.80;8.00;;;;;;;14.76;43.52;98811.31;5425611;32;34132;-68
2022/04/07 08:10:34;;;;;;;33.05;8.40;;;;;;;14.89;43.36;98813.78;5412179;32;34342;-72
2022/04/07 08:13:36;;;;;;;15.93;7.32;;;;;;;16.49;40.08;98810.72;5413876;32;32309;-79
2022/04/07 08:16:39;;;;;;;16.98;8.27;;;;;;;14.58;43.63;98818.06;5420920;32;35610;-74
2022/04/07 08:19:41;;;;;;;11.23;6.20;;;;;;;16.38;39.98;98812.66;5408644;32;33481;-82
2022/04/07 08:22:43;;;;;;;12.10;6.80;;;;;;;15.25;42.21;98811.72;5418247;32;34405;-76
2022/04/07 08:25:46;;;;;;;14.50;7.07;;;;;;;16.17;40.12;98816.19;5411415;32;35369;-74
2022/04/07 08:28:48;;;;;;;11.00;6.43;;;;;;;16.21;40.47;98819.41;5409502;32;34193;-81
2022/04/07 08:31:52;;;;;;;14.20;8.10;;;;;;;15.72;41.32;98826.28;5389282;32;44475;-65
2022/04/07 08:34:56;;;;;;;15.32;7.50;;;;;;;15.86;40.95;98831.25;5417812;32;33020;-81
2022/04/07 08:37:59;;;;;;;17.83;6.67;;;;;;;15.64;41.43;98823.44;5422002;32;34260;-66
2022/04/07 08:41:01;;;;;;;13.00;6.27;;;;;;;15.35;41.60;98832.00;5407037;32;34026;-64
2022/04/07 08:44:04;;;;;;;12.98;6.55;;;;;;;15.89;40.27;98825.69;5405288;32;35246;-65
2022/04/07 08:47:06;;;;;;;;;;;;;;;15.49;41.22;98824.72;5405475;32;34205;-65
2022/04/07 08:50:13;;;;;;;13.53;6.17;;;;;;;14.77;42.70;98828.00;5428025;32;34265;-70
2022/04/07 08:53:16;;;;;;;17.30;7.27;;;;;;;14.81;42.84;98829.41;5415627;32;35743;-66
2022/04/07 08:56:18;;;;;;;12.17;6.97;;;;;;;14.59;43.63;98820.59;5386470;32;34295;-68
2022/04/07 08:59:21;;;;;;;22.90;9.50;;;;;;;15.30;42.48;98809.53;5414767;32;34226;-73
2022/04/07 09:02:23;;;;;;;13.43;6.40;;;;;;;14.91;43.33;98806.56;5391379;32;45204;-70
2022/04/07 09:05:26;;;;;;;15.23;7.27;;;;;;;15.27;42.51;98800.03;5423654;32;34199;-71
2022/04/07 09:08:36;;;;;;;21.30;8.25;;;;;;;16.24;40.53;98798.78;5413273;32;34070;-67
2022/04/07 09:11:39;;;;;;;12.13;6.60;;;;;;;16.36;40.74;98802.19;5412194;32;35274;-70
2022/04/07 09:14:42;;;;;;;12.77;6.25;;;;;;;16.43;40.18;98803.31;5401588;32;38404;-74
2022/04/07 09:17:53;;;;;;;12.43;6.10;;;;;;;16.07;41.24;98804.72;5400614;32;35443;-69
2022/04/07 09:20:55;;;;;;;13.87;6.03;;;;;;;16.69;39.84;98806.31;5411022;32;44664;-69
2022/04/07 09:24:00;;;;;;;11.80;6.37;;;;;;;16.05;40.54;98801.38;5402610;32;37127;-69
2022/04/07 09:27:09;;;;;;;13.53;6.07;;;;;;;17.79;37.63;98769.69;5421766;32;35255;-72
2022/04/07 09:30:12;;;;;;;10.57;5.93;;;;;;;17.20;38.72;98769.91;5409571;32;33851;-69
2022/04/07 09:33:21;;;;;;;12.52;6.03;;;;;;;17.13;38.53;98780.25;5397030;32;35197;-70
2022/04/07 09:36:24;;;;;;;13.50;5.80;;;;;;;17.39;38.28;98777.84;5420288;32;44546;-70
2022/04/07 09:39:26;;;;;;;10.93;5.93;;;;;;;16.23;40.57;98790.97;5411628;32;32818;-70
2022/04/07 09:42:29;;;;;;;13.70;5.97;;;;;;;16.54;39.99;98783.78;5411871;32;34242;-67
2022/04/07 09:45:43;;;;;;;10.70;6.60;;;;;;;16.12;40.96;98786.59;5413059;32;35474;-65
2022/04/07 09:49:07;;;;;;;9.40;5.90;;;;;;;15.84;41.56;98789.94;5397522;32;34228;-71
2022/04/07 09:52:11;;;;;;;12.43;6.00;;;;;;;16.43;40.82;98783.91;5424292;32;34498;-69
2022/04/07 09:55:13;;;;;;;15.23;6.03;;;;;;;16.23;41.05;98789.16;5404056;32;34050;-71
2022/04/07 09:58:17;;;;;;;39.38;19.12;;;;;;;17.49;38.36;98775.16;5400844;32;34124;-71
2022/04/07 10:01:19;;;;;;;11.82;5.78;;;;;;;16.60;40.27;98780.59;5391846;32;34166;-74
2022/04/07 10:04:22;;;;;;;12.00;5.78;;;;;;;16.58;40.32;98776.41;5408656;32;42539;-76
2022/04/07 10:07:24;;;;;;;11.98;5.37;;;;;;;16.20;40.76;98770.88;5414640;32;36106;-74
2022/04/07 10:10:28;;;;;;;10.82;5.45;;;;;;;15.64;41.31;98765.16;5411469;32;34104;-72
2022/04/07 10:13:30;;;;;;;10.67;5.57;;;;;;;16.53;39.54;98768.84;5417983;32;34246;-75
2022/04/07 10:16:33;;;;;;;13.75;5.68;;;;;;;16.56;39.46;98767.75;5408041;32;34145;-70
2022/04/07 10:19:45;;;;;;;;;;;;;;;18.02;36.43;98770.12;5408072;32;35291;-74
2022/04/07 10:23:05;;;;;;;13.80;5.70;;;;;;;17.32;38.10;98761.66;5406474;32;34368;-74
2022/04/07 10:26:09;;;;;;;15.57;6.93;;;;;;;17.78;36.51;98762.69;5414569;32;36430;-76
2022/04/07 10:29:22;;;;;;;12.82;5.50;;;;;;;19.79;33.11;98765.06;5417566;32;33761;-74
2022/04/07 10:32:24;;;;;;;14.23;5.05;;;;;;;20.33;32.32;98762.12;5410663;32;44893;-74
2022/04/07 10:35:29;;;;;;;10.77;6.10;;;;;;;19.29;33.86;98747.03;5423851;32;36381;-71
2022/04/07 10:38:37;;;;;;;14.07;6.75;;;;;;;19.73;33.09;98742.53;5407820;32;35386;-73
2022/04/07 10:41:40;;;;;;;15.27;6.65;;;;;;;19.30;34.02;98740.72;5406494;32;35353;-73
2022/04/07 10:44:42;;;;;;;9.77;6.20;;;;;;;21.07;31.09;98735.44;5410914;32;33809;-70
2022/04/07 10:48:23;;;;;;;9.85;5.57;;;;;;;20.83;31.29;98730.09;5409686;32;35401;-70
2022/04/07 10:51:45;;;;;;;11.70;6.00;;;;;;;21.72;30.22;98723.03;5421089;32;33303;-74
2022/04/07 10:55:11;;;;;;;11.73;6.67;;;;;;;20.94;31.17;98720.94;5409091;32;34384;-74
2022/04/07 10:58:14;;;;;;;10.00;5.75;;;;;;;21.64;29.56;98713.22;5375657;32;34466;-73
2022/04/07 11:01:36;;;;;;;12.85;6.40;;;;;;;20.54;31.04;98698.50;5421297;32;34739;-72
2022/04/07 11:05:01;;;;;;;14.38;6.65;;;;;;;19.00;33.57;98709.16;5388813;32;33878;-73
2022/04/07 11:08:05;;;;;;;14.30;6.87;;;;;;;18.61;34.44;98714.78;5405852;32;33285;-71
2022/04/07 11:11:08;;;;;;;10.63;5.82;;;;;;;20.27;32.27;98705.75;5402158;32;35052;-77
2022/04/07 11:14:10;;;;;;;13.93;6.20;;;;;;;19.69;32.86;98706.50;5408657;32;35754;-70
2022/04/07 11:17:24;;;;;;;10.57;6.22;;;;;;;18.82;33.98;98709.22;5420333;32;35205;-69
2022/04/07 11:20:27;;;;;;;16.27;6.15;;;;;;;20.37;32.18;98694.12;5411861;32;44249;-72
2022/04/07 11:23:53;;;;;;;12.15;6.37;;;;;;;22.73;27.76;98687.44;5407034;32;33916;-72
2022/04/07 11:26:55;;;;;;;11.18;5.90;;;;;;;22.70;28.05;98689.47;5393056;32;45134;-79
2022/04/07 11:30:08;;;;;;;16.08;6.78;;;;;;;21.40;29.76;98699.88;5406850;32;35261;-70
2022/04/07 11:33:28;;;;;;;11.32;6.05;;;;;;;20.84;30.81;98699.72;5404642;32;34024;-76
2022/04/07 11:36:32;;;;;;;13.27;5.50;;;;;;;20.66;30.70;98694.53;5409435;32;34138;-72
2022/04/07 11:39:38;;;;;;;11.95;5.82;;;;;;;21.39;29.93;98688.38;5420079;32;35629;-71
2022/04/07 11:42:49;;;;;;;14.55;6.30;;;;;;;21.53;29.78;98685.00;5398459;32;34032;-73
2022/04/07 11:45:55;;;;;;;15.63;5.72;;;;;;;21.26;30.21;98682.69;5388980;32;44405;-80
2022/04/07 11:49:17;;;;;;;10.93;5.97;;;;;;;21.70;29.16;98679.56;5420471;32;34429;-79
2022/04/07 11:52:25;;;;;;;11.85;6.35;;;;;;;23.03;27.60;98662.44;5395023;32;34437;-82
2022/04/07 11:55:27;;;;;;;14.35;6.12;;;;;;;23.91;26.22;98660.88;5399285;32;44465;-72
2022/04/07 11:58:29;;;;;;;13.07;6.22;;;;;;;24.09;25.92;98668.50;5377247;32;36200;-80
2022/04/07 12:01:32;;;;;;;10.77;5.87;;;;;;;24.38;25.31;98657.72;5417095;32;34135;-75
2022/04/07 12:04:35;;;;;;;10.27;6.18;;;;;;;22.22;27.83;98655.84;5404164;32;34147;-76
2022/04/07 12:07:37;;;;;;;11.48;6.55;;;;;;;21.28;29.58;98661.97;5396551;32;35625;-65
2022/04/07 12:10:41;;;;;;;12.70;6.43;;;;;;;22.11;28.16;98656.22;5412592;32;35233;-80
2022/04/07 12:13:44;;;;;;;11.93;5.57;;;;;;;23.59;26.64;98638.75;5395339;32;34249;-77
2022/04/07 12:16:46;;;;;;;;;;;;;;;25.96;23.18;98633.12;5404136;32;34281;-74
2022/04/07 12:19:50;;;;;;;11.40;5.18;;;;;;;24.16;24.62;98642.59;5407163;32;36022;-76
2022/04/07 12:23:07;;;;;;;;;;;;;;;24.48;24.60;98633.28;5392155;32;44581;-66
2022/04/07 12:26:09;;;;;;;10.77;4.75;;;;;;;22.56;26.79;98635.88;5423933;32;34808;-69
2022/04/07 12:29:25;;;;;;;10.00;4.80;;;;;;;24.11;24.60;98631.59;5414410;32;34158;-67
2022/04/07 12:32:43;;;;;;;12.50;5.47;;;;;;;24.95;23.48;98621.06;5393449;32;44338;-68
2022/04/07 12:35:47;;;;;;;10.60;5.12;;;;;;;26.56;21.24;98619.84;5416933;32;35799;-68
2022/04/07 12:39:08;;;;;;;9.80;5.03;;;;;;;24.58;23.11;98617.66;5400055;32;34265;-68
2022/04/07 12:42:11;;;;;;;8.97;4.33;;;;;;;24.04;24.59;98618.94;5425824;32;34428;-65
2022/04/07 12:45:13;;;;;;;9.23;4.22;;;;;;;25.36;22.44;98610.44;5416851;32;35718;-76
2022/04/07 12:48:17;;;;;;;;;;;;;;;24.05;23.95;98607.16;5423738;32;34256;-76
2022/04/07 12:51:30;;;;;;;8.32;3.75;;;;;;;24.02;23.64;98620.13;5411529;32;44477;-71
2022/04/07 12:54:32;;;;;;;;;;;;;;;27.23;20.22;98608.84;5418566;32;34026;-74
2022/04/07 12:57:40;;;;;;;12.82;4.62;;;;;;;27.36;19.69;98604.47;5383977;32;34175;-90
2022/04/07 13:01:02;;;;;;;12.57;5.35;;;;;;;23.26;24.40;98610.66;5406603;32;36068;-66
2022/04/07 13:04:08;;;;;;;10.77;5.53;;;;;;;26.13;21.09;98588.63;5410277;32;35353;-69
2022/04/07 13:07:10;;;;;;;10.55;4.85;;;;;;;25.58;21.56;98589.66;5408563;32;34180;-72
2022/04/07 13:10:13;;;;;;;9.35;4.87;;;;;;;26.09;21.26;98581.19;5420942;32;35603;-73
2022/04/07 13:13:15;;;;;;;;;;;;;;;26.63;20.74;98577.56;5418160;32;35171;-73
2022/04/07 13:16:17;;;;;;;10.68;5.53;;;;;;;25.08;22.38;98572.81;5414692;32;34789;-74
2022/04/07 13:19:19;;;;;;;;;;;;;;;23.38;24.99;98585.88;5424755;32;34794;-76
2022/04/07 13:22:23;;;;;;;11.30;6.00;;;;;;;22.07;26.87;98579.94;5414022;32;44633;-75
2022/04/07 13:25:26;;;;;;;14.05;6.57;;;;;;;22.71;26.65;98584.00;5430362;32;35483;-71
2022/04/07 13:28:28;;;;;;;10.88;6.20;;;;;;;21.34;29.33;98573.13;5411184;32;33969;-79
2022/04/07 13:31:30;;;;;;;8.35;4.70;;;;;;;21.36;29.13;98585.31;5418837;32;34015;-73
2022/04/07 13:34:33;;;;;;;11.75;4.72;;;;;;;21.10;28.89;98582.03;5413280;32;34164;-79
2022/04/07 13:37:35;;;;;;;9.43;4.97;;;;;;;21.71;27.86;98579.69;5408218;32;34164;-81
2022/04/07 13:40:37;;;;;;;11.70;5.43;;;;;;;21.46;28.39;98566.41;5425610;32;35373;-79
2022/04/07 13:43:40;;;;;;;12.13;5.45;;;;;;;21.50;28.21;98570.38;5415481;32;34913;-80
2022/04/07 13:46:42;;;;;;;14.15;6.18;;;;;;;21.69;28.09;98555.75;5420941;32;35447;-76
2022/04/07 13:49:45;;;;;;;;;;;;;;;22.05;27.58;98552.56;5404572;32;34185;-80
2022/04/07 13:52:47;;;;;;;10.52;5.45;;;;;;;22.64;26.90;98545.59;5412637;32;34438;-72
2022/04/07 13:55:49;;;;;;;10.45;5.18;;;;;;;21.04;29.36;98535.44;5408978;32;32374;-72
2022/04/07 13:58:52;;;;;;;11.60;5.85;;;;;;;21.68;28.74;98537.22;5398410;32;44031;-74
2022/04/07 14:01:55;;;;;;;10.52;5.47;;;;;;;22.60;27.28;98538.09;5400484;32;35335;-71
2022/04/07 14:04:57;;;;;;;12.52;4.80;;;;;;;20.74;29.72;98542.38;5409196;32;36555;-76
2022/04/07 14:08:00;;;;;;;22.13;5.35;;;;;;;20.87;29.71;98538.34;5415988;32;35289;-76
2022/04/07 14:11:03;;;;;;;13.43;5.70;;;;;;;19.84;31.73;98530.84;5393810;32;34348;-77
2022/04/07 14:14:05;;;;;;;13.35;5.25;;;;;;;20.28;30.71;98531.34;5390152;32;34416;-73
2022/04/07 14:17:07;;;;;;;10.63;5.35;;;;;;;21.24;29.40;98527.03;5406155;32;36312;-74
2022/04/07 14:20:12;;;;;;;14.15;5.75;;;;;;;20.55;30.60;98505.38;5405822;32;34748;-68